Time;durP1;ratioP1;P1;durP2;ratioP2;P2;SDS_P1;SDS_P2;PMS_P1;PMS_P2;Temp;Humidity;BMP_temperature;BMP_pressure;BME280_temperature;BME280_humidity;BME280_pressure;Samples;Min_cycle;Max_cycle;Signal;HPM_P1;HPM_P2
2021/12/15 00:00:15;;;;;;;10.30;7.20;;;;;;;5.43;79.02;102050.06;5088999;28;20042;-49
2021/12/15 00:06:10;;;;;;;11.10;8.00;;;;;;;5.42;78.76;102048.25;5092545;28;20093;-48
2021/12/15 00:08:36;;;;;;;13.27;8.30;;;;;;;5.42;78.63;102050.88;5091266;28;20402;-48
2021/12/15 00:11:01;;;;;;;13.57;9.10;;;;;;;5.41;78.77;102052.63;5091765;28;20026;-48
2021/12/15 00:13:26;;;;;;;11.02;8.25;;;;;;;5.44;78.55;102062.28;5091315;28;20024;-48
2021/12/15 00:15:52;;;;;;;11.38;8.55;;;;;;;5.42;79.01;102062.25;5086233;28;20019;-48
2021/12/15 00:18:17;;;;;;;11.77;9.05;;;;;;;5.45;78.59;102064.06;5091353;28;20547;-48
2021/12/15 00:20:43;;;;;;;14.55;8.85;;;;;;;5.44;79.01;102067.53;5091809;28;20052;-47
2021/12/15 00:23:09;;;;;;;14.68;9.40;;;;;;;5.44;78.84;102063.16;5089696;28;20476;-48
2021/12/15 00:25:37;;;;;;;13.45;8.88;;;;;;;5.44;78.64;102068.41;5072275;28;20039;-48
2021/12/15 00:28:04;;;;;;;13.85;9.63;;;;;;;5.44;78.96;102063.16;5089253;28;20180;-47
2021/12/15 00:30:30;;;;;;;13.70;10.25;;;;;;;5.44;78.64;102068.41;5089537;28;20063;-48
2021/12/15 00:32:55;;;;;;;12.93;10.02;;;;;;;5.44;78.91;102062.28;5090988;28;20350;-48
2021/12/15 00:35:21;;;;;;;11.55;8.02;;;;;;;5.45;78.93;102071.91;5091178;28;20028;-48
2021/12/15 00:37:47;;;;;;;12.98;8.88;;;;;;;5.45;78.50;102070.22;5090180;28;20336;-47
2021/12/15 00:40:14;;;;;;;12.88;8.20;;;;;;;5.45;78.63;102062.34;5091050;28;20169;-48
2021/12/15 00:42:40;;;;;;;11.15;8.40;;;;;;;5.45;78.50;102066.69;5088861;28;20023;-48
2021/12/15 00:45:07;;;;;;;15.00;9.85;;;;;;;5.45;78.93;102070.22;5088971;28;20027;-47
2021/12/15 00:47:32;;;;;;;15.70;10.23;;;;;;;5.45;79.18;102075.44;5091050;28;20519;-48
2021/12/15 00:49:57;;;;;;;14.00;8.93;;;;;;;5.45;78.60;102078.06;5091253;28;20031;-48
2021/12/15 00:52:23;;;;;;;14.75;9.45;;;;;;;5.46;78.95;102084.16;5088049;28;20024;-48
2021/12/15 00:54:48;;;;;;;15.73;9.75;;;;;;;5.44;78.67;102084.09;5090995;28;20450;-48
2021/12/15 00:57:13;;;;;;;12.98;10.00;;;;;;;5.46;78.74;102089.38;5089102;28;20024;-48
2021/12/15 00:59:39;;;;;;;11.65;8.30;;;;;;;5.44;78.55;102084.09;5089800;28;20122;-48
2021/12/15 01:02:05;;;;;;;10.65;7.88;;;;;;;5.46;78.75;102090.28;5090394;28;20032;-48
2021/12/15 01:04:31;;;;;;;10.95;8.32;;;;;;;5.44;78.86;102093.69;5071464;28;21394;-48
2021/12/15 01:06:59;;;;;;;13.85;8.60;;;;;;;5.46;79.15;102081.53;5087787;28;20102;-48
2021/12/15 01:09:30;;;;;;;11.25;7.88;;;;;;;5.44;79.04;102084.09;5070307;28;20472;-48
2021/12/15 01:12:11;;;;;;;;;;;;;;;5.46;78.48;102087.69;5072682;28;20693;-48
2021/12/15 01:20:24;;;;;;;13.82;9.35;;;;;;;5.45;78.86;102093.75;5089105;28;20039;-48
2021/12/15 01:22:53;;;;;;;11.70;8.68;;;;;;;5.45;78.79;102085.91;5087350;28;20024;-48
2021/12/15 01:25:25;;;;;;;15.45;8.82;;;;;;;5.45;78.98;102085.00;5071059;28;20126;-48
2021/12/15 01:27:51;;;;;;;11.50;8.75;;;;;;;5.45;79.04;102083.28;5088685;28;20115;-48
2021/12/15 01:30:21;;;;;;;12.40;9.07;;;;;;;5.46;78.83;102092.00;5070622;28;20028;-48
2021/12/15 01:32:49;;;;;;;13.70;8.60;;;;;;;5.47;78.73;102099.03;5089624;28;20110;-48
2021/12/15 01:35:15;;;;;;;12.73;9.30;;;;;;;5.46;79.01;102090.28;5087031;28;20024;-48
2021/12/15 01:37:41;;;;;;;11.45;8.55;;;;;;;5.46;78.94;102098.16;5086943;28;20107;-48
2021/12/15 01:40:18;;;;;;;13.15;8.52;;;;;;;5.47;79.20;102086.84;5071019;28;20488;-48
2021/12/15 01:42:44;;;;;;;11.70;9.02;;;;;;;5.46;79.01;102095.53;5089685;28;20424;-48
2021/12/15 01:48:02;;;;;;;13.93;7.95;;;;;;;5.46;79.11;102092.00;5088988;28;20031;-48
2021/12/15 01:50:27;;;;;;;12.40;8.73;;;;;;;5.46;78.93;102090.28;5087480;28;20012;-48
2021/12/15 01:52:52;;;;;;;13.75;9.02;;;;;;;5.47;79.15;102094.69;5089961;28;20027;-48
2021/12/15 01:55:20;;;;;;;14.10;8.95;;;;;;;5.47;78.58;102094.69;5089369;28;20035;-48
2021/12/15 01:57:47;;;;;;;10.07;8.15;;;;;;;5.47;78.80;102093.81;5090147;28;20058;-48
2021/12/15 02:00:29;;;;;;;11.63;8.13;;;;;;;5.48;78.60;102093.88;5089517;28;20505;-48
2021/12/15 02:02:56;;;;;;;13.80;8.98;;;;;;;5.47;78.53;102097.31;5088651;28;20043;-47
2021/12/15 02:05:24;;;;;;;11.02;8.23;;;;;;;5.47;78.31;102094.69;5072064;28;20059;-49
2021/12/15 02:07:50;;;;;;;12.98;8.38;;;;;;;5.48;79.14;102085.13;5090426;28;20028;-48
2021/12/15 02:10:17;;;;;;;13.55;9.68;;;;;;;5.48;78.46;102086.03;5097832;28;20027;-47
2021/12/15 02:12:43;;;;;;;13.20;8.82;;;;;;;5.49;79.02;102086.88;5094444;28;20034;-47
2021/12/15 02:15:14;;;;;;;12.00;8.30;;;;;;;5.49;78.54;102089.50;5093132;28;20058;-48
2021/12/15 02:17:40;;;;;;;12.35;8.88;;;;;;;5.47;78.67;102084.22;5093607;28;20060;-47
2021/12/15 02:20:07;;;;;;;11.60;8.02;;;;;;;5.47;79.04;102089.44;5093542;28;20027;-48
2021/12/15 02:22:32;;;;;;;11.32;7.47;;;;;;;5.48;78.67;102093.88;5091483;28;20042;-48
2021/12/15 02:24:58;;;;;;;10.38;8.07;;;;;;;5.48;78.43;102096.50;5092530;28;20021;-48
2021/12/15 02:27:30;;;;;;;12.10;8.65;;;;;;;5.48;78.65;102096.50;5092667;28;20027;-48
2021/12/15 02:30:02;;;;;;;11.18;7.68;;;;;;;5.47;78.57;102094.69;5092789;28;20547;-48
2021/12/15 02:32:49;;;;;;;12.43;8.30;;;;;;;5.48;78.68;102088.63;5093533;28;20032;-48
2021/12/15 02:37:58;;;;;;;11.52;8.00;;;;;;;5.48;78.96;102095.59;5092423;28;20030;-48
2021/12/15 02:40:23;;;;;;;10.18;7.40;;;;;;;5.49;79.01;102087.78;5091312;28;20403;-48
2021/12/15 02:42:49;;;;;;;11.52;8.45;;;;;;;5.48;78.71;102090.34;5091299;28;20089;-48
2021/12/15 02:45:18;;;;;;;12.15;7.25;;;;;;;5.48;78.43;102096.50;5090882;28;20102;-48
2021/12/15 02:47:43;;;;;;;9.75;8.15;;;;;;;5.49;78.73;102094.75;5091481;28;20024;-48
2021/12/15 02:50:13;;;;;;;11.63;8.00;;;;;;;5.50;78.61;102093.91;5091336;28;20093;-48
2021/12/15 02:52:40;;;;;;;10.88;8.07;;;;;;;5.48;78.73;102096.50;5074681;28;20079;-47
2021/12/15 02:55:07;;;;;;;10.40;7.35;;;;;;;5.49;78.99;102093.03;5091012;28;20048;-48
2021/12/15 02:57:33;;;;;;;9.43;6.97;;;;;;;5.47;78.85;102089.44;5072510;28;20028;-49
2021/12/15 03:00:03;;;;;;;10.75;7.82;;;;;;;5.49;78.66;102082.56;5073231;28;20024;-48
2021/12/15 03:05:28;;;;;;;9.85;7.47;;;;;;;5.49;78.69;102092.13;5092976;28;20626;-48
2021/12/15 03:15:51;;;;;;;12.98;8.57;;;;;;;5.48;78.89;102086.03;5091977;28;20031;-48
2021/12/15 03:18:21;;;;;;;12.20;8.05;;;;;;;5.49;79.03;102092.13;5092544;28;20028;-48
2021/12/15 03:21:15;;;;;;;11.43;7.47;;;;;;;5.50;78.86;102102.66;5092748;28;20024;-48
2021/12/15 03:23:52;;;;;;;11.60;8.18;;;;;;;5.49;78.50;102098.25;5092816;28;20035;-48
2021/12/15 03:26:22;;;;;;;10.15;8.18;;;;;;;5.49;78.80;102098.25;5092777;28;20507;-48
2021/12/15 03:34:38;;;;;;;13.50;8.48;;;;;;;5.50;78.69;102093.91;5091147;28;20034;-48
2021/12/15 03:37:23;;;;;;;11.82;8.18;;;;;;;5.49;79.17;102093.03;5077779;28;20024;-48
2021/12/15 03:40:07;;;;;;;11.45;8.00;;;;;;;5.49;79.02;102100.88;5091464;28;20032;-48
2021/12/15 03:42:39;;;;;;;12.65;8.85;;;;;;;5.49;79.17;102103.50;5074234;28;20458;-48
2021/12/15 03:45:11;;;;;;;12.93;8.32;;;;;;;5.49;79.12;102106.09;5089960;28;20016;-48
2021/12/15 03:47:39;;;;;;;11.35;8.13;;;;;;;5.49;78.85;102103.50;5086501;28;20073;-48
2021/12/15 03:50:07;;;;;;;14.38;9.45;;;;;;;5.49;78.92;102108.72;5091172;28;20024;-48
2021/12/15 03:52:33;;;;;;;12.27;8.52;;;;;;;5.50;78.95;102106.97;5087647;28;20032;-48
2021/12/15 03:54:59;;;;;;;12.48;8.73;;;;;;;5.51;78.71;102103.56;5090245;28;20023;-48
2021/12/15 03:57:24;;;;;;;13.50;7.93;;;;;;;5.51;78.74;102107.03;5089211;28;20088;-48
2021/12/15 03:59:50;;;;;;;10.68;8.00;;;;;;;5.50;79.23;102100.03;5085813;28;20025;-49
2021/12/15 04:02:18;;;;;;;10.68;8.18;;;;;;;5.51;79.24;102096.56;5087049;28;20084;-48
2021/12/15 04:04:45;;;;;;;9.85;7.78;;;;;;;5.50;78.53;102097.41;5089748;28;20043;-49
2021/12/15 04:07:13;;;;;;;14.25;8.32;;;;;;;5.51;78.88;102096.56;5087658;28;20464;-48
2021/12/15 04:09:39;;;;;;;12.05;7.60;;;;;;;5.51;78.80;102107.03;5091071;28;20673;-48
2021/12/15 04:12:05;;;;;;;12.80;8.60;;;;;;;5.52;79.24;102102.69;5090800;28;20089;-48
2021/12/15 04:14:41;;;;;;;13.13;8.30;;;;;;;5.50;79.48;102097.41;5092878;28;20016;-48
2021/12/15 04:17:17;;;;;;;11.23;7.80;;;;;;;5.51;78.62;102096.56;5089286;28;20027;-48
2021/12/15 04:19:43;;;;;;;11.52;7.68;;;;;;;5.53;79.06;102104.47;5088471;28;20028;-48
2021/12/15 04:22:08;;;;;;;10.02;7.25;;;;;;;5.52;79.27;102106.22;5091003;28;20024;-48
2021/12/15 04:24:33;;;;;;;10.93;8.23;;;;;;;5.52;79.11;102108.84;5069049;28;20116;-48
2021/12/15 04:27:00;;;;;;;11.00;8.07;;;;;;;5.53;78.92;102107.09;5090534;28;20085;-48
2021/12/15 04:29:28;;;;;;;12.02;7.90;;;;;;;5.52;78.99;102114.06;5090159;28;20533;-48
2021/12/15 04:31:59;;;;;;;10.73;7.63;;;;;;;5.52;78.68;102115.78;5069805;28;20111;-48
2021/12/15 04:34:24;;;;;;;13.15;8.60;;;;;;;5.54;78.75;102115.84;5088771;28;20560;-48
2021/12/15 04:36:52;;;;;;;10.13;6.50;;;;;;;5.52;78.48;102121.94;5089298;28;20079;-48
2021/12/15 04:39:20;;;;;;;9.70;6.65;;;;;;;5.54;78.79;102118.47;5090119;28;20373;-48
2021/12/15 04:41:49;;;;;;;11.68;8.00;;;;;;;5.53;79.44;102120.19;5092287;28;20186;-48
2021/12/15 04:44:16;;;;;;;11.10;7.60;;;;;;;5.54;78.54;102121.09;5089254;28;20095;-47
2021/12/15 04:46:47;;;;;;;10.60;7.63;;;;;;;5.54;78.96;102118.47;5072642;28;20024;-48
2021/12/15 04:49:17;;;;;;;11.00;7.75;;;;;;;5.52;78.71;102116.69;5092692;28;20024;-48
2021/12/15 04:51:42;;;;;;;9.63;6.75;;;;;;;5.54;78.93;102131.53;5089092;28;20032;-48
2021/12/15 04:54:07;;;;;;;11.30;7.38;;;;;;;5.53;79.18;102133.25;5090429;28;20361;-47
2021/12/15 04:56:33;;;;;;;9.68;6.95;;;;;;;5.53;79.02;102133.25;5090934;28;20396;-48
2021/12/15 04:58:58;;;;;;;10.82;6.93;;;;;;;5.54;79.17;102136.78;5090940;28;20109;-48
2021/12/15 05:01:25;;;;;;;7.57;6.20;;;;;;;5.54;79.28;102144.63;5090126;28;20105;-48
2021/12/15 05:03:50;;;;;;;11.02;6.97;;;;;;;5.54;78.88;102134.16;5089357;28;20024;-48
2021/12/15 05:06:16;;;;;;;9.98;6.80;;;;;;;5.54;78.91;102147.25;5090829;28;20035;-47
2021/12/15 05:08:41;;;;;;;12.77;7.85;;;;;;;5.54;78.85;102152.50;5089214;28;20028;-48
2021/12/15 05:11:08;;;;;;;10.90;7.00;;;;;;;5.55;79.56;102154.25;5090257;28;20035;-48
2021/12/15 05:13:34;;;;;;;9.57;7.57;;;;;;;5.54;79.18;102152.50;5090641;28;20090;-49
2021/12/15 05:16:00;;;;;;;10.70;7.28;;;;;;;5.55;79.45;102151.63;5088430;28;20032;-48
2021/12/15 05:18:26;;;;;;;10.07;6.97;;;;;;;5.54;78.81;102156.00;5090315;28;20024;-48
2021/12/15 05:20:53;;;;;;;10.82;6.97;;;;;;;5.54;78.71;102148.16;5088422;28;20028;-48
2021/12/15 05:23:20;;;;;;;11.07;8.52;;;;;;;5.54;78.85;102153.38;5089352;28;20051;-48
2021/12/15 05:25:46;;;;;;;9.68;6.75;;;;;;;5.55;79.26;102160.41;5071053;28;20032;-48
2021/12/15 05:28:12;;;;;;;8.70;6.60;;;;;;;5.56;79.40;102161.28;5090309;28;20446;-48
2021/12/15 05:30:38;;;;;;;9.73;6.78;;;;;;;5.55;78.76;102165.63;5088310;28;20062;-48
2021/12/15 05:33:04;;;;;;;11.07;7.13;;;;;;;5.55;78.95;102160.41;5071063;28;20495;-48
2021/12/15 05:35:33;;;;;;;11.48;7.97;;;;;;;5.55;79.48;102168.25;5090441;28;20034;-48
2021/12/15 05:37:59;;;;;;;10.20;7.47;;;;;;;5.55;79.30;102155.16;5089540;28;20046;-48
2021/12/15 05:40:26;;;;;;;8.65;6.55;;;;;;;5.56;78.53;102161.28;5089238;28;20038;-48
2021/12/15 05:42:56;;;;;;;10.85;7.30;;;;;;;5.56;79.37;102166.50;5071745;28;20019;-48
2021/12/15 05:45:21;;;;;;;10.20;7.43;;;;;;;5.56;78.97;102166.50;5089255;28;20052;-48
2021/12/15 05:47:47;;;;;;;9.80;6.85;;;;;;;5.56;78.80;102172.63;5089195;28;20054;-47
2021/12/15 05:50:13;;;;;;;9.55;6.88;;;;;;;5.56;79.24;102167.41;5088831;28;20027;-48
2021/12/15 05:52:39;;;;;;;9.32;6.70;;;;;;;5.55;79.23;102173.47;5088194;28;20032;-47
2021/12/15 05:55:10;;;;;;;8.75;6.88;;;;;;;5.56;78.76;102171.75;5088693;28;20480;-48
2021/12/15 05:57:35;;;;;;;9.40;6.68;;;;;;;5.56;78.96;102166.50;5087704;28;20530;-48
2021/12/15 06:00:04;;;;;;;10.80;7.65;;;;;;;5.56;78.81;102170.03;5071067;28;20036;-49
2021/12/15 06:02:30;;;;;;;9.98;7.68;;;;;;;5.56;78.56;102163.88;5088705;28;20106;-48
2021/12/15 06:04:55;;;;;;;11.65;7.40;;;;;;;5.56;79.19;102172.63;5090076;28;20328;-48
2021/12/15 06:07:20;;;;;;;9.63;6.43;;;;;;;5.56;79.30;102169.13;5089513;28;20028;-48
2021/12/15 06:09:46;;;;;;;8.13;6.55;;;;;;;5.56;78.97;102169.13;5089300;28;20035;-48
2021/12/15 06:12:11;;;;;;;8.93;6.90;;;;;;;5.57;79.20;102178.78;5088512;28;20039;-48
2021/12/15 06:14:37;;;;;;;9.73;6.88;;;;;;;5.56;79.17;102177.88;5089367;28;20052;-49
2021/12/15 06:17:07;;;;;;;9.35;7.35;;;;;;;5.57;79.21;102173.53;5089023;28;20020;-48
2021/12/15 06:19:33;;;;;;;13.25;7.93;;;;;;;5.56;78.95;102167.41;5091026;28;20039;-48
2021/12/15 06:21:59;;;;;;;9.15;6.40;;;;;;;5.57;79.05;102173.53;5088932;28;20023;-49
2021/12/15 06:24:24;;;;;;;8.70;6.40;;;;;;;5.56;79.50;102177.88;5089248;28;20024;-48
2021/12/15 06:26:50;;;;;;;10.13;6.57;;;;;;;5.56;79.20;102175.25;5087028;28;20424;-48
2021/12/15 06:29:16;;;;;;;10.32;7.25;;;;;;;5.56;79.57;102177.88;5090093;28;20020;-48
2021/12/15 06:31:41;;;;;;;10.20;6.93;;;;;;;5.57;79.25;102173.53;5089445;28;20631;-48
2021/12/15 06:34:07;;;;;;;8.52;6.13;;;;;;;5.56;79.11;102170.03;5089219;28;20494;-48
2021/12/15 06:36:33;;;;;;;11.50;7.15;;;;;;;5.57;78.95;102170.91;5089214;28;20024;-49
2021/12/15 06:38:59;;;;;;;9.73;7.13;;;;;;;5.57;78.88;102170.91;5086393;28;20024;-49
2021/12/15 06:41:24;;;;;;;10.18;7.25;;;;;;;5.57;78.83;102174.41;5086510;28;20455;-48
2021/12/15 06:43:54;;;;;;;9.95;7.72;;;;;;;5.57;78.67;102171.78;5089065;28;20035;-47
2021/12/15 06:57:32;;;;;;;11.18;8.50;;;;;;;5.57;78.80;102181.41;5088296;28;20047;-48
2021/12/15 06:59:58;;;;;;;12.73;8.38;;;;;;;5.56;79.37;102187.44;5090653;28;20020;-48
2021/12/15 07:02:24;;;;;;;9.48;6.60;;;;;;;5.57;79.23;102192.72;5091716;28;20030;-48
2021/12/15 07:04:49;;;;;;;10.00;7.28;;;;;;;5.56;79.11;102187.44;5088894;28;20024;-48
2021/12/15 07:07:15;;;;;;;9.77;6.72;;;;;;;5.58;79.14;102196.25;5091013;28;20043;-48
2021/12/15 07:09:40;;;;;;;8.73;6.35;;;;;;;5.58;78.91;102206.72;5072691;28;20027;-49
2021/12/15 07:12:06;;;;;;;9.27;6.78;;;;;;;5.57;78.78;102195.34;5070599;28;20103;-49
2021/12/15 07:14:32;;;;;;;10.15;6.90;;;;;;;5.58;79.21;102198.88;5090224;28;20395;-49
2021/12/15 07:16:59;;;;;;;8.85;6.47;;;;;;;5.57;79.39;102192.72;5091522;28;20543;-49
2021/12/15 07:22:15;;;;;;;9.82;7.15;;;;;;;5.59;78.86;102205.88;5092169;28;20883;-48
2021/12/15 07:24:40;;;;;;;11.90;7.32;;;;;;;5.58;78.66;102217.19;5090951;28;20032;-48
2021/12/15 07:27:06;;;;;;;9.32;7.15;;;;;;;5.58;79.21;102206.72;5091445;28;20534;-49
2021/12/15 07:29:33;;;;;;;8.18;5.75;;;;;;;5.55;79.01;102198.75;5090703;28;20039;-48
2021/12/15 07:31:59;;;;;;;9.45;6.45;;;;;;;5.59;79.37;102213.72;5074395;28;20123;-49
2021/12/15 07:34:25;;;;;;;10.30;6.55;;;;;;;5.57;79.46;102213.66;5091440;28;20035;-49
2021/12/15 07:36:50;;;;;;;12.32;7.55;;;;;;;5.59;79.35;102221.59;5092519;28;20020;-48
2021/12/15 07:39:15;;;;;;;10.65;7.35;;;;;;;5.59;78.78;102226.81;5092651;28;20020;-48
2021/12/15 07:41:50;;;;;;;10.48;7.35;;;;;;;5.59;78.91;102224.19;5091289;28;20032;-49
2021/12/15 07:44:16;;;;;;;9.50;6.82;;;;;;;5.59;79.01;102225.09;5073594;28;20024;-49
2021/12/15 07:47:02;;;;;;;10.23;6.72;;;;;;;5.59;79.29;102224.19;5075142;28;20043;-49
2021/12/15 07:49:28;;;;;;;10.35;6.95;;;;;;;5.59;79.25;102237.28;5091447;28;20038;-48
2021/12/15 07:52:00;;;;;;;10.48;7.57;;;;;;;5.58;78.84;102232.91;5073741;28;20020;-48
2021/12/15 07:54:27;;;;;;;8.52;7.03;;;;;;;5.59;79.32;102226.81;5091348;28;20475;-48
2021/12/15 07:56:52;;;;;;;10.90;6.93;;;;;;;5.58;78.76;102239.03;5089684;28;20032;-48
2021/12/15 07:59:18;;;;;;;10.88;7.75;;;;;;;5.59;79.01;102234.66;5091526;28;20075;-48
2021/12/15 08:01:44;;;;;;;9.88;6.93;;;;;;;5.59;79.13;102234.66;5090496;28;20016;-49
2021/12/15 08:04:09;;;;;;;9.30;6.82;;;;;;;5.59;79.03;102235.56;5091538;28;20036;-48
2021/12/15 08:06:34;;;;;;;9.00;7.20;;;;;;;5.60;78.89;102241.72;5091037;28;20024;-49
2021/12/15 08:09:00;;;;;;;9.82;7.22;;;;;;;5.58;78.94;102233.81;5073213;28;20020;-48
2021/12/15 08:11:28;;;;;;;9.77;6.57;;;;;;;5.59;78.85;102238.19;5091665;28;20024;-49
2021/12/15 08:13:53;;;;;;;9.57;6.82;;;;;;;5.59;79.15;102239.91;5091250;28;20032;-49
2021/12/15 08:16:19;;;;;;;10.60;7.47;;;;;;;5.60;78.67;102246.94;5091605;28;20027;-48
2021/12/15 08:18:46;;;;;;;9.63;6.75;;;;;;;5.60;78.85;102249.56;5089431;28;20542;-49
2021/12/15 08:21:11;;;;;;;11.65;7.82;;;;;;;5.59;79.43;102248.66;5087196;28;20068;-48
2021/12/15 08:23:37;;;;;;;10.55;6.93;;;;;;;5.60;78.95;102250.44;5091321;28;20036;-49
2021/12/15 08:26:03;;;;;;;8.77;6.80;;;;;;;5.59;78.89;102250.38;5093336;28;20028;-49
2021/12/15 08:28:29;;;;;;;10.55;7.43;;;;;;;5.59;78.91;102246.03;5091567;28;20035;-49
2021/12/15 08:30:54;;;;;;;11.70;7.90;;;;;;;5.59;79.25;102248.66;5091492;28;20035;-49
2021/12/15 08:33:22;;;;;;;9.90;7.20;;;;;;;5.59;79.03;102256.50;5090487;28;20020;-49
2021/12/15 08:36:06;;;;;;;10.63;6.63;;;;;;;5.61;79.11;102259.19;5091559;28;20032;-49
2021/12/15 08:38:33;;;;;;;10.40;7.55;;;;;;;5.60;79.28;102258.28;5088704;28;20020;-49
2021/12/15 08:41:00;;;;;;;10.75;7.60;;;;;;;5.60;79.41;102254.81;5071774;28;20115;-49
2021/12/15 08:43:26;;;;;;;9.82;7.25;;;;;;;5.61;78.85;102261.81;5086899;28;20337;-48
2021/12/15 08:46:10;;;;;;;10.07;7.75;;;;;;;5.61;79.28;102259.19;5091401;28;20077;-49
2021/12/15 08:48:37;;;;;;;10.05;7.55;;;;;;;5.60;79.07;102254.81;5090772;28;21358;-49
2021/12/15 08:51:04;;;;;;;10.25;7.50;;;;;;;5.60;79.30;102255.66;5088502;28;20429;-48
2021/12/15 08:53:29;;;;;;;9.50;6.68;;;;;;;5.61;78.53;102261.81;5090147;28;20034;-49
2021/12/15 08:55:55;;;;;;;9.38;7.22;;;;;;;5.60;78.89;102255.66;5072106;28;20024;-49
2021/12/15 08:58:21;;;;;;;10.88;7.05;;;;;;;5.61;79.00;102259.19;5090795;28;20043;-48
2021/12/15 09:00:50;;;;;;;11.05;7.28;;;;;;;5.60;79.27;102262.66;5091700;28;20038;-49
2021/12/15 09:03:17;;;;;;;9.75;7.10;;;;;;;5.61;79.33;102264.44;5071418;28;20484;-49
2021/12/15 09:05:42;;;;;;;9.50;6.63;;;;;;;5.61;79.40;102264.44;5088028;28;20536;-48
2021/12/15 09:08:09;;;;;;;11.75;8.02;;;;;;;5.60;78.95;102266.16;5090831;28;20031;-49
2021/12/15 09:10:37;;;;;;;10.32;6.60;;;;;;;5.60;78.98;102258.28;5090041;28;20020;-48
2021/12/15 09:13:03;;;;;;;11.65;7.90;;;;;;;5.61;78.98;102264.44;5090376;28;20028;-48
2021/12/15 09:15:29;;;;;;;11.30;7.72;;;;;;;5.62;78.90;102274.06;5089251;28;20024;-49
2021/12/15 09:17:57;;;;;;;10.85;7.45;;;;;;;5.60;79.22;102266.16;5090013;28;20437;-49
2021/12/15 09:20:27;;;;;;;10.25;7.95;;;;;;;5.62;79.49;102272.34;5090073;28;20166;-49
2021/12/15 09:22:53;;;;;;;11.25;6.88;;;;;;;5.62;79.06;102267.09;5089372;28;20530;-49
2021/12/15 09:25:18;;;;;;;11.45;8.15;;;;;;;5.62;78.91;102266.19;5090483;28;20024;-49
2021/12/15 09:27:47;;;;;;;9.93;7.57;;;;;;;5.62;78.90;102266.19;5089479;28;20028;-49
2021/12/15 09:30:17;;;;;;;11.35;8.20;;;;;;;5.63;79.74;102268.88;5091444;28;20081;-49
2021/12/15 09:32:46;;;;;;;10.65;7.53;;;;;;;5.62;79.12;102272.34;5069392;28;20124;-48
2021/12/15 09:35:15;;;;;;;8.85;6.38;;;;;;;5.62;79.65;102268.81;5088292;28;20036;-48
2021/12/15 09:37:43;;;;;;;10.02;7.78;;;;;;;5.62;79.00;102274.97;5087111;28;20401;-49
2021/12/15 09:40:10;;;;;;;10.02;7.47;;;;;;;5.63;79.02;102270.59;5089892;28;20016;-49
2021/12/15 09:42:39;;;;;;;11.13;7.63;;;;;;;5.62;78.79;102267.09;5089124;28;20028;-49
2021/12/15 09:45:22;;;;;;;11.75;8.02;;;;;;;5.63;79.06;102270.59;5084442;28;20027;-49
2021/12/15 09:48:16;;;;;;;10.77;7.28;;;;;;;5.63;79.26;102262.75;5091051;28;20020;-48
2021/12/15 09:56:48;;;;;;;11.20;7.10;;;;;;;5.64;79.29;102261.94;5074272;28;20476;-48
2021/12/15 10:02:07;;;;;;;9.73;7.28;;;;;;;5.64;79.14;102259.31;5087367;28;20061;-48
2021/12/15 10:04:48;;;;;;;7.88;6.30;;;;;;;5.64;79.69;102259.31;5088506;28;20031;-49
2021/12/15 10:21:31;;;;;;;9.30;6.78;;;;;;;5.65;79.39;102262.00;4985822;28;20066;-49
2021/12/15 10:23:56;;;;;;;9.27;6.88;;;;;;;5.67;79.95;102259.41;5078474;28;20048;-49
2021/12/15 10:26:25;;;;;;;11.80;7.60;;;;;;;5.66;79.33;102252.38;5089678;28;20580;-49
2021/12/15 10:28:52;;;;;;;10.18;7.45;;;;;;;5.68;79.89;102248.13;5090273;28;20016;-49
2021/12/15 10:31:21;;;;;;;10.98;7.65;;;;;;;5.69;79.73;102246.38;5075446;28;20024;-49
2021/12/15 10:37:11;;;;;;;10.45;7.40;;;;;;;5.72;80.10;102246.50;5090613;28;20070;-48
2021/12/15 10:39:36;;;;;;;11.57;8.10;;;;;;;5.72;80.30;102242.16;5093573;28;20032;-49
2021/12/15 10:42:01;;;;;;;9.38;7.05;;;;;;;5.73;80.17;102241.31;5089397;28;20032;-49
2021/12/15 10:44:30;;;;;;;9.60;7.65;;;;;;;5.74;79.76;102237.84;5091802;28;20441;-48
2021/12/15 10:47:06;;;;;;;9.38;6.72;;;;;;;5.75;80.20;102237.03;5094139;28;20092;-49
2021/12/15 10:49:39;;;;;;;10.77;7.45;;;;;;;5.75;79.95;102230.91;5091028;28;20024;-49
2021/12/15 10:52:11;;;;;;;8.93;6.88;;;;;;;5.75;80.53;102226.56;5090837;28;20689;-48
2021/12/15 10:54:46;;;;;;;9.25;7.00;;;;;;;5.75;80.03;102237.03;5092690;28;20040;-49
2021/12/15 10:57:21;;;;;;;9.30;6.75;;;;;;;5.76;80.43;102238.81;5092791;28;20489;-48
2021/12/15 10:59:49;;;;;;;10.73;7.32;;;;;;;5.77;80.24;102235.34;5091896;28;20455;-49
2021/12/15 11:02:23;;;;;;;9.52;7.28;;;;;;;5.77;80.30;102240.59;5091535;28;20851;-49
2021/12/15 11:05:05;;;;;;;9.98;7.18;;;;;;;5.78;80.21;102241.50;5090758;28;20020;-49
2021/12/15 11:07:30;;;;;;;;;;;;;;;5.78;80.06;102244.97;5092577;28;20054;-49
2021/12/15 11:10:10;;;;;;;9.52;6.55;;;;;;;5.77;80.81;102248.44;5092296;28;19970;-49
2021/12/15 11:12:49;;;;;;;10.32;7.80;;;;;;;5.77;80.59;102240.59;5090192;28;20035;-48
2021/12/15 11:15:30;;;;;;;10.48;7.15;;;;;;;5.77;80.74;102245.81;5092724;28;20028;-48
2021/12/15 11:18:10;;;;;;;10.07;7.18;;;;;;;5.80;80.74;102238.94;5089546;28;20031;-49
2021/12/15 11:20:42;;;;;;;11.25;7.50;;;;;;;5.81;81.06;102246.84;5092404;28;20472;-49
2021/12/15 11:23:23;;;;;;;11.60;8.15;;;;;;;5.82;81.04;102247.72;5091116;28;20039;-49
2021/12/15 11:26:06;;;;;;;10.90;7.47;;;;;;;5.83;80.46;102239.03;5090474;28;20028;-49
2021/12/15 11:28:44;;;;;;;11.07;8.13;;;;;;;5.85;80.60;102242.59;5090597;28;20058;-49
2021/12/15 11:31:21;;;;;;;9.07;6.85;;;;;;;5.84;80.82;102236.44;5072266;28;20435;-49
2021/12/15 11:33:53;;;;;;;11.73;7.28;;;;;;;5.84;81.05;102225.09;5072835;28;20047;-49
2021/12/15 11:36:25;;;;;;;11.60;8.27;;;;;;;5.84;80.80;102225.97;5092072;28;20028;-49
2021/12/15 11:38:57;;;;;;;9.98;7.70;;;;;;;5.85;81.14;102229.50;5090617;28;20107;-49
2021/12/15 11:41:24;;;;;;;11.55;8.60;;;;;;;5.85;81.13;102232.13;5088808;28;20103;-48
2021/12/15 11:44:01;;;;;;;10.10;7.45;;;;;;;5.84;80.69;102223.34;5071251;28;20108;-49
2021/12/15 11:46:45;;;;;;;9.25;7.03;;;;;;;5.86;80.83;102226.03;5092025;28;20039;-49
2021/12/15 11:49:13;;;;;;;11.13;8.07;;;;;;;5.86;80.52;102219.06;5088876;28;20028;-50
2021/12/15 11:51:43;;;;;;;12.32;8.00;;;;;;;5.87;80.91;102219.97;5090006;28;20399;-49
2021/12/15 11:54:23;;;;;;;11.30;7.70;;;;;;;5.87;81.07;102222.59;5088567;28;20044;-49
2021/12/15 11:56:56;;;;;;;10.68;7.15;;;;;;;5.87;80.91;102213.00;5093372;28;20060;-50
2021/12/15 11:59:31;;;;;;;10.45;7.22;;;;;;;5.88;80.58;102216.53;5087381;28;20020;-49
2021/12/15 12:02:10;;;;;;;8.98;6.93;;;;;;;5.89;80.95;102223.53;5089568;28;20024;-49
2021/12/15 12:04:46;;;;;;;12.00;7.22;;;;;;;5.89;80.69;102218.28;5089934;28;20024;-49
2021/12/15 12:07:39;;;;;;;11.40;6.57;;;;;;;5.89;81.19;102219.19;5089926;28;20050;-49
2021/12/15 12:10:06;;;;;;;10.48;7.70;;;;;;;5.90;80.88;102214.81;5090902;28;20020;-49
2021/12/15 12:12:38;;;;;;;12.10;7.50;;;;;;;5.88;80.61;102222.66;5088176;28;20546;-49
2021/12/15 12:15:20;;;;;;;8.38;6.80;;;;;;;5.89;80.79;102213.06;5091180;28;20097;-49
2021/12/15 12:17:48;;;;;;;10.18;7.25;;;;;;;5.90;80.61;102215.72;5090086;28;20024;-49
2021/12/15 12:20:24;;;;;;;9.63;7.35;;;;;;;5.91;80.96;102221.88;5091469;28;20020;-49
2021/12/15 12:22:54;;;;;;;8.90;6.90;;;;;;;5.90;80.65;102220.06;5088806;28;20506;-49
2021/12/15 12:25:29;;;;;;;9.98;6.35;;;;;;;5.90;80.62;102220.97;5088403;28;20041;-50
2021/12/15 12:27:56;;;;;;;10.45;6.82;;;;;;;5.92;80.84;102218.41;5071995;28;20453;-50
2021/12/15 12:30:31;;;;;;;10.95;7.50;;;;;;;5.91;80.86;102214.00;5084933;28;20023;-49
2021/12/15 12:32:57;;;;;;;10.32;6.90;;;;;;;5.91;81.24;102212.25;5086465;28;20140;-50
2021/12/15 12:35:27;;;;;;;8.88;6.93;;;;;;;5.92;81.11;102202.69;5088865;28;20492;-50
2021/12/15 12:37:56;;;;;;;9.63;7.88;;;;;;;5.93;80.64;102208.84;5070215;28;20581;-49
2021/12/15 12:40:33;;;;;;;8.95;6.28;;;;;;;5.93;80.84;102204.47;5088489;28;20499;-49
2021/12/15 12:42:59;;;;;;;10.65;7.55;;;;;;;5.93;81.31;102214.94;5087433;28;20089;-49
2021/12/15 12:46:19;;;;;;;8.60;6.88;;;;;;;5.92;80.64;102210.56;5088372;28;20740;-49
2021/12/15 13:00:18;;;;;;;11.95;7.13;;;;;;;5.94;81.15;102205.38;5091652;28;20034;-49